CheckWX is a tool to help pilots better visualize weather data.  It is not intended as a substitute for an official pre-flight weather briefing.

01:55:27 UTC

FKKD TAF
Douala International Airport
Douala, Cameroon
TAF FKKD 182300Z 1900/2006 VRB04KT 8000 TS BKN013 SCT016CB TEMPO 1900/1905 3000 TSRA BECMG 1906/1908 NSW

Mar-19@
00:00 UTC

Mar-19 @ 00:00 UTC

Mar-19@
06:00 UTC

Mar-19 @ 06:00 UTC

TAF FKKD 182300Z 1900/2006 VRB04KT 8000 TS BKN013 SCT016CB
Wind
  • Variable at 4 KTS
Conditions
Thunderstorm
Cloud Levels
  • Broken at 1,300' AGL
  • Scattered at 1,600' AGL

Mar-19@
00:00 UTC

Mar-19 @ 00:00 UTC

Mar-19@
05:00 UTC

Mar-19 @ 05:00 UTC

TEMPO 1900/1905 3000 TSRA

Temporary

Temporary Changes expected for less than half the time period

Conditions
Thunderstorm, Rain

Mar-19@
06:00 UTC

Mar-19 @ 06:00 UTC

Mar-20@
06:00 UTC

Mar-20 @ 06:00 UTC

BECMG 1906/1908 NSW

Becoming

Becoming Conditions expected by Tue, Mar 19, 2019 @ 08:00 UTC

Wind
  • Variable at 4 KTS
Conditions
No significant weather
Cloud Levels
  • Broken at 1,300' AGL
  • Scattered at 1,600' AGL